createdAt,value
2023-05-24T00:00:34.030Z,15.07
2023-05-24T00:03:04.857Z,14.82
2023-05-24T00:05:37.760Z,15.16
2023-05-24T00:08:05.963Z,15.30
2023-05-24T00:10:34.043Z,15.29
2023-05-24T00:13:01.948Z,15.18
2023-05-24T00:15:29.895Z,15.31
2023-05-24T00:17:57.888Z,15.22
2023-05-24T00:20:26.088Z,15.02
2023-05-24T00:22:55.454Z,15.07
2023-05-24T00:25:23.434Z,15.14
2023-05-24T00:27:51.376Z,15.07
2023-05-24T00:30:19.500Z,14.97
2023-05-24T00:32:47.466Z,15.01
2023-05-24T00:35:15.510Z,15.00
2023-05-24T00:37:45.360Z,15.03
2023-05-24T00:40:15.045Z,15.03
2023-05-24T00:42:42.960Z,15.00
2023-05-24T00:45:11.749Z,15.00
2023-05-24T00:47:39.814Z,14.83
2023-05-24T00:50:09.677Z,14.74
2023-05-24T00:52:38.085Z,14.77
2023-05-24T00:55:07.246Z,14.73
2023-05-24T00:57:37.798Z,14.69
2023-05-24T01:00:08.020Z,14.69
2023-05-24T01:02:36.371Z,14.71
2023-05-24T01:05:04.592Z,14.80
2023-05-24T01:07:41.518Z,14.89
2023-05-24T01:10:18.029Z,14.80
2023-05-24T01:13:00.935Z,14.80
2023-05-24T01:15:39.308Z,14.86
2023-05-24T01:18:15.982Z,14.79
2023-05-24T01:20:45.451Z,14.70
2023-05-24T01:23:28.024Z,14.76
2023-05-24T01:26:10.078Z,14.80
2023-05-24T01:28:40.893Z,14.73
2023-05-24T01:31:09.184Z,14.81
2023-05-24T01:33:41.381Z,14.72
2023-05-24T01:36:09.617Z,14.55
2023-05-24T01:38:38.103Z,14.61
2023-05-24T01:41:13.538Z,14.66
2023-05-24T01:43:51.678Z,14.69
2023-05-24T01:46:26.947Z,14.61
2023-05-24T01:49:04.451Z,14.59
2023-05-24T01:51:41.453Z,14.57
2023-05-24T01:54:10.517Z,14.59
2023-05-24T01:56:40.467Z,14.59
2023-05-24T01:59:11.004Z,14.55
2023-05-24T02:01:39.714Z,14.50
2023-05-24T02:04:07.732Z,14.47
2023-05-24T02:06:36.048Z,14.37
2023-05-24T02:09:04.085Z,14.40
2023-05-24T02:11:32.007Z,14.13
2023-05-24T02:13:59.978Z,14.00
2023-05-24T02:16:30.832Z,14.04
2023-05-24T02:18:59.110Z,13.91
2023-05-24T02:21:28.931Z,13.86
2023-05-24T02:23:57.188Z,13.95
2023-05-24T02:26:25.181Z,13.91
2023-05-24T02:28:53.234Z,13.78
2023-05-24T02:31:21.832Z,13.68
2023-05-24T02:33:51.202Z,13.88
2023-05-24T02:36:19.134Z,13.97
2023-05-24T02:38:47.115Z,13.93
2023-05-24T02:41:17.972Z,13.89
2023-05-24T02:43:46.062Z,13.91
2023-05-24T02:46:14.450Z,13.66
2023-05-24T02:48:42.608Z,13.31
2023-05-24T02:51:11.888Z,13.16
2023-05-24T02:53:39.892Z,13.18
2023-05-24T02:56:08.759Z,13.23
2023-05-24T02:58:40.534Z,13.30
2023-05-24T03:01:08.826Z,13.28
2023-05-24T03:03:36.954Z,13.10
2023-05-24T03:06:05.238Z,12.98
2023-05-24T03:08:34.804Z,13.05
2023-05-24T03:11:02.867Z,13.28
2023-05-24T03:13:30.919Z,13.03
2023-05-24T03:15:58.897Z,12.96
2023-05-24T03:18:26.823Z,12.94
2023-05-24T03:20:54.788Z,13.19
2023-05-24T03:23:22.783Z,13.36
2023-05-24T03:25:52.085Z,13.45
2023-05-24T03:28:22.355Z,13.29
2023-05-24T03:30:50.524Z,13.27
2023-05-24T03:33:18.468Z,13.38
2023-05-24T03:35:46.462Z,13.43
2023-05-24T03:38:14.470Z,13.51
2023-05-24T03:40:42.724Z,13.54
2023-05-24T03:43:12.281Z,13.71
2023-05-24T03:45:40.412Z,13.85
2023-05-24T03:48:08.681Z,14.06
2023-05-24T03:50:36.710Z,13.97
2023-05-24T03:53:04.638Z,14.10
2023-05-24T03:55:32.685Z,14.13
2023-05-24T03:58:00.645Z,14.15
2023-05-24T04:00:30.117Z,14.23
2023-05-24T04:02:58.228Z,14.41
2023-05-24T04:05:29.826Z,14.55
2023-05-24T04:07:57.894Z,14.51
2023-05-24T04:10:26.032Z,14.63
2023-05-24T04:12:53.940Z,14.88
2023-05-24T04:15:23.112Z,14.86
2023-05-24T04:17:55.209Z,14.96
2023-05-24T04:20:25.833Z,14.94
2023-05-24T04:22:54.025Z,15.06
2023-05-24T04:25:22.130Z,15.18
2023-05-24T04:27:50.421Z,15.22
2023-05-24T04:30:18.699Z,15.35
2023-05-24T04:32:46.877Z,15.42
2023-05-24T04:35:16.886Z,15.54
2023-05-24T04:37:45.194Z,15.56
2023-05-24T04:40:13.918Z,15.72
2023-05-24T04:42:41.886Z,15.81
2023-05-24T04:45:10.762Z,15.88
2023-05-24T04:47:38.797Z,15.83
2023-05-24T04:50:08.296Z,15.94
2023-05-24T04:52:37.863Z,16.22
2023-05-24T04:55:06.515Z,16.40
2023-05-24T04:57:34.653Z,16.55
2023-05-24T05:00:02.656Z,16.69
2023-05-24T05:02:31.208Z,16.86
2023-05-24T05:04:59.199Z,16.89
2023-05-24T05:07:27.246Z,17.03
2023-05-24T05:09:56.983Z,16.89
2023-05-24T05:12:24.976Z,16.51
2023-05-24T05:14:53.376Z,16.62
2023-05-24T05:17:21.815Z,16.87
2023-05-24T05:19:49.796Z,16.13
2023-05-24T05:22:17.880Z,15.88
2023-05-24T05:24:45.843Z,15.96
2023-05-24T05:27:15.188Z,16.26
2023-05-24T05:29:43.143Z,16.25
2023-05-24T05:32:11.390Z,16.81
2023-05-24T05:34:39.315Z,16.97
2023-05-24T05:37:07.460Z,17.22
2023-05-24T05:39:35.418Z,17.46
2023-05-24T05:42:03.366Z,17.62
2023-05-24T05:44:32.741Z,17.72
2023-05-24T05:47:00.652Z,17.79
2023-05-24T05:49:28.621Z,17.87
2023-05-24T05:51:56.569Z,18.03
2023-05-24T05:54:24.526Z,18.18
2023-05-24T05:56:52.461Z,18.16
2023-05-24T05:59:20.641Z,17.96
2023-05-24T06:01:49.951Z,17.80
2023-05-24T06:04:18.262Z,18.02
2023-05-24T06:06:49.634Z,18.28
2023-05-24T06:09:18.011Z,18.46
2023-05-24T06:11:45.987Z,18.57
2023-05-24T06:14:18.248Z,18.55
2023-05-24T06:16:48.183Z,18.58
2023-05-24T06:19:18.371Z,18.77
2023-05-24T06:21:48.083Z,18.86
2023-05-24T06:24:20.500Z,19.02
2023-05-24T06:26:48.821Z,19.19
2023-05-24T06:29:16.942Z,19.35
2023-05-24T06:31:44.996Z,19.00
2023-05-24T06:34:13.109Z,18.40
2023-05-24T06:36:43.141Z,18.29
2023-05-24T06:39:11.424Z,18.18
2023-05-24T06:41:39.472Z,18.29
2023-05-24T06:44:07.887Z,18.27
2023-05-24T06:46:35.936Z,18.35
2023-05-24T06:49:04.543Z,18.42
2023-05-24T06:51:33.823Z,18.43
2023-05-24T06:54:03.390Z,18.04
2023-05-24T06:56:31.513Z,18.23
2023-05-24T06:59:00.784Z,18.78
2023-05-24T07:01:29.334Z,19.04
2023-05-24T07:03:58.035Z,19.13
2023-05-24T07:06:25.997Z,19.14
2023-05-24T07:08:54.032Z,19.25
2023-05-24T07:11:23.609Z,19.17
2023-05-24T07:13:51.585Z,19.43
2023-05-24T07:16:19.565Z,19.67
2023-05-24T07:18:47.568Z,19.39
2023-05-24T07:21:15.675Z,19.21
2023-05-24T07:23:43.703Z,19.55
2023-05-24T07:26:12.802Z,20.06
2023-05-24T07:28:42.095Z,19.91
2023-05-24T07:31:10.652Z,19.97
2023-05-24T07:33:38.915Z,20.13
2023-05-24T07:36:07.680Z,20.22
2023-05-24T07:38:36.152Z,20.74
2023-05-24T07:41:04.763Z,21.07
2023-05-24T07:43:32.957Z,20.97
2023-05-24T07:46:02.963Z,21.02
2023-05-24T07:48:31.007Z,21.11
2023-05-24T07:50:58.956Z,21.18
2023-05-24T07:53:26.919Z,21.25
2023-05-24T07:55:55.210Z,21.42
2023-05-24T07:58:23.290Z,21.55
2023-05-24T08:00:51.288Z,21.58
2023-05-24T08:03:20.775Z,21.69
2023-05-24T08:05:48.836Z,21.64
2023-05-24T08:08:16.774Z,21.83
2023-05-24T08:10:44.802Z,21.66
2023-05-24T08:13:12.997Z,21.65
2023-05-24T08:15:41.314Z,21.67
2023-05-24T08:18:09.672Z,21.58
2023-05-24T08:20:40.917Z,21.89
2023-05-24T08:23:09.071Z,22.09
2023-05-24T08:25:37.048Z,21.90
2023-05-24T08:28:05.069Z,22.15
2023-05-24T08:30:33.295Z,22.38
2023-05-24T08:33:01.375Z,22.52
2023-05-24T08:35:29.393Z,22.52
2023-05-24T08:37:58.703Z,22.38
2023-05-24T08:40:26.781Z,22.35
2023-05-24T08:42:55.084Z,22.30
2023-05-24T08:45:23.751Z,22.56
2023-05-24T08:47:52.279Z,22.76
2023-05-24T08:50:21.507Z,22.77
2023-05-24T08:52:50.280Z,22.86
2023-05-24T08:55:20.200Z,23.00
2023-05-24T08:57:48.963Z,22.75
2023-05-24T09:00:18.178Z,22.70
2023-05-24T09:02:47.565Z,22.98
2023-05-24T09:05:17.128Z,22.84
2023-05-24T09:07:46.778Z,23.17
2023-05-24T09:10:14.975Z,23.43
2023-05-24T09:12:46.755Z,23.66
2023-05-24T09:15:14.752Z,23.78
2023-05-24T09:17:42.901Z,23.81
2023-05-24T09:20:11.948Z,23.63
2023-05-24T09:22:43.197Z,23.41
2023-05-24T09:25:14.157Z,23.36
2023-05-24T09:27:42.488Z,23.74
2023-05-24T09:30:13.110Z,24.01
2023-05-24T09:32:41.647Z,24.15
2023-05-24T09:35:10.902Z,24.22
2023-05-24T09:37:40.510Z,24.24
2023-05-24T09:40:19.454Z,24.28
2023-05-24T09:42:51.536Z,24.18
2023-05-24T09:45:25.765Z,24.47
2023-05-24T09:47:54.140Z,24.80
2023-05-24T09:50:22.816Z,24.95
2023-05-24T09:52:54.302Z,25.26
2023-05-24T09:55:22.749Z,25.26
2023-05-24T09:57:52.794Z,25.32
2023-05-24T10:00:25.484Z,25.45
2023-05-24T10:03:03.686Z,25.39
2023-05-24T10:05:32.227Z,25.44
2023-05-24T10:08:00.949Z,25.53
2023-05-24T10:10:30.349Z,25.54
2023-05-24T10:12:59.081Z,25.18
2023-05-24T10:15:29.528Z,24.82
2023-05-24T10:17:58.532Z,24.75
2023-05-24T10:20:26.892Z,25.08
2023-05-24T10:23:00.372Z,25.23
2023-05-24T10:25:30.629Z,25.45
2023-05-24T10:28:03.476Z,25.64
2023-05-24T10:30:38.678Z,25.54
2023-05-24T10:33:09.542Z,25.75
2023-05-24T10:35:38.416Z,25.76
2023-05-24T10:38:08.549Z,25.69
2023-05-24T10:40:43.771Z,25.86
2023-05-24T10:43:11.941Z,25.79
2023-05-24T10:45:42.191Z,25.49
2023-05-24T10:48:20.220Z,25.07
2023-05-24T10:50:48.308Z,24.60
2023-05-24T10:53:17.641Z,24.88
2023-05-24T10:55:56.458Z,25.00
2023-05-24T10:58:30.754Z,25.14
2023-05-24T11:01:00.178Z,25.46
2023-05-24T11:03:34.000Z,25.52
2023-05-24T11:06:03.022Z,25.84
2023-05-24T11:08:33.311Z,25.38
2023-05-24T11:13:43.337Z,25.04
2023-05-24T11:16:37.130Z,25.01
2023-05-24T11:19:19.809Z,25.04
2023-05-24T11:21:50.127Z,25.19
2023-05-24T11:24:19.034Z,25.11
2023-05-24T11:26:47.415Z,25.20
2023-05-24T11:29:18.408Z,24.87
2023-05-24T11:31:52.568Z,25.01
2023-05-24T11:34:20.981Z,25.23
2023-05-24T11:36:50.159Z,25.67
2023-05-24T11:39:18.283Z,25.86
2023-05-24T11:41:46.251Z,25.84
2023-05-24T11:44:19.126Z,25.56
2023-05-24T11:46:47.592Z,25.66
2023-05-24T11:49:18.082Z,25.37
2023-05-24T11:51:46.139Z,25.39
2023-05-24T11:54:14.378Z,25.64
2023-05-24T11:56:42.768Z,25.90
2023-05-24T11:59:15.814Z,26.02
2023-05-24T12:01:44.305Z,26.18
2023-05-24T12:04:13.237Z,26.41
2023-05-24T12:06:44.469Z,26.51
2023-05-24T12:09:14.480Z,26.55
2023-05-24T12:11:43.620Z,26.37
2023-05-24T12:14:15.466Z,25.99
2023-05-24T12:16:44.040Z,26.06
2023-05-24T12:21:46.687Z,26.40
2023-05-24T12:24:17.402Z,26.55
2023-05-24T12:26:46.429Z,26.40
2023-05-24T12:29:15.190Z,26.13
2023-05-24T12:31:44.641Z,25.86
2023-05-24T12:34:14.004Z,25.88
2023-05-24T12:36:43.582Z,25.95
2023-05-24T12:39:23.052Z,25.50
2023-05-24T12:41:55.356Z,25.27
2023-05-24T12:44:26.439Z,25.16
2023-05-24T12:46:55.727Z,25.06
2023-05-24T12:49:23.960Z,25.23
2023-05-24T12:51:52.691Z,25.19
2023-05-24T12:54:23.410Z,24.97
2023-05-24T12:56:54.170Z,24.77
2023-05-24T12:59:23.867Z,25.07
2023-05-24T13:01:52.499Z,25.18
2023-05-24T13:04:23.153Z,25.65
2023-05-24T13:06:51.272Z,26.13
2023-05-24T13:09:21.572Z,26.49
2023-05-24T13:11:51.148Z,26.82
2023-05-24T13:14:19.853Z,27.02
2023-05-24T13:16:48.595Z,26.77
2023-05-24T13:19:17.155Z,26.23
2023-05-24T13:21:45.419Z,25.84
2023-05-24T13:24:14.727Z,25.77
2023-05-24T13:26:42.754Z,25.08
2023-05-24T13:31:43.375Z,23.73
2023-05-24T13:34:11.808Z,23.63
2023-05-24T13:36:40.434Z,23.05
2023-05-24T13:41:41.535Z,22.28
2023-05-24T13:44:11.249Z,21.62
2023-05-24T13:46:40.256Z,21.52
2023-05-24T13:49:09.460Z,21.32
2023-05-24T13:51:38.127Z,21.44
2023-05-24T13:54:07.691Z,21.76
2023-05-24T13:56:36.683Z,21.66
2023-05-24T13:59:05.746Z,21.67
2023-05-24T14:01:37.079Z,21.97
2023-05-24T14:04:06.558Z,22.19
2023-05-24T14:06:37.529Z,22.35
2023-05-24T14:09:07.593Z,22.46
2023-05-24T14:11:35.640Z,22.58
2023-05-24T14:16:36.747Z,22.23
2023-05-24T14:19:05.742Z,22.87
2023-05-24T14:21:33.878Z,23.06
2023-05-24T14:24:01.946Z,23.18
2023-05-24T14:26:29.914Z,23.27
2023-05-24T14:28:57.880Z,23.36
2023-05-24T14:31:25.951Z,23.44
2023-05-24T14:33:55.392Z,23.27
2023-05-24T14:36:23.282Z,23.24
2023-05-24T14:38:51.826Z,23.45
2023-05-24T14:41:19.808Z,23.53
2023-05-24T14:43:47.855Z,23.77
2023-05-24T14:46:16.005Z,23.57
2023-05-24T14:48:44.124Z,23.81
2023-05-24T14:51:13.402Z,23.94
2023-05-24T14:53:41.365Z,23.73
2023-05-24T14:56:10.202Z,23.58
2023-05-24T14:58:38.269Z,22.97
2023-05-24T15:01:06.897Z,22.58
2023-05-24T15:03:35.261Z,22.23
2023-05-24T15:06:03.696Z,22.35
2023-05-24T15:08:34.210Z,22.42
2023-05-24T15:11:02.276Z,22.76
2023-05-24T15:13:30.303Z,23.02
2023-05-24T15:16:00.608Z,23.01
2023-05-24T15:18:29.134Z,23.19
2023-05-24T15:20:57.304Z,23.25
2023-05-24T15:23:26.230Z,23.20
2023-05-24T15:25:55.706Z,23.35
2023-05-24T15:28:26.031Z,23.46
2023-05-24T15:30:54.622Z,23.51
2023-05-24T15:33:22.734Z,23.39
2023-05-24T15:35:50.953Z,23.51
2023-05-24T15:38:19.016Z,23.37
2023-05-24T15:40:47.076Z,23.36
2023-05-24T15:43:19.579Z,23.31
2023-05-24T15:45:48.293Z,23.03
2023-05-24T15:48:16.364Z,23.18
2023-05-24T15:51:13.856Z,23.02
2023-05-24T15:53:32.573Z,22.81
2023-05-24T15:56:00.593Z,23.11
2023-05-24T15:58:29.910Z,23.09
2023-05-24T16:00:57.855Z,23.09
2023-05-24T16:03:25.950Z,22.80
2023-05-24T16:05:54.109Z,22.56
2023-05-24T16:08:27.667Z,22.35
2023-05-24T16:10:55.910Z,22.35
2023-05-24T16:13:23.997Z,22.43
2023-05-24T16:15:53.258Z,22.43
2023-05-24T16:18:22.951Z,22.51
2023-05-24T16:20:52.024Z,22.52
2023-05-24T16:23:23.057Z,22.50
2023-05-24T16:25:51.437Z,22.05
2023-05-24T16:28:23.917Z,21.74
2023-05-24T16:30:56.065Z,21.77
2023-05-24T16:33:24.738Z,21.65
2023-05-24T16:35:56.432Z,21.68
2023-05-24T16:38:25.615Z,21.61
2023-05-24T16:40:54.150Z,21.51
2023-05-24T16:43:22.695Z,21.64
2023-05-24T16:45:51.360Z,21.42
2023-05-24T16:48:21.989Z,21.34
2023-05-24T16:50:51.730Z,21.48
2023-05-24T16:53:22.935Z,21.23
2023-05-24T16:55:53.821Z,21.23
2023-05-24T16:58:21.875Z,21.23
2023-05-24T17:00:49.919Z,21.28
2023-05-24T17:03:18.147Z,21.35
2023-05-24T17:05:47.625Z,21.38
2023-05-24T17:08:15.560Z,21.41
2023-05-24T17:10:44.015Z,21.43
2023-05-24T17:13:12.167Z,21.35
2023-05-24T17:15:40.115Z,21.31
2023-05-24T17:18:08.120Z,21.16
2023-05-24T17:20:36.070Z,21.17
2023-05-24T17:23:05.427Z,21.07
2023-05-24T17:25:33.480Z,21.02
2023-05-24T17:28:01.530Z,20.92
2023-05-24T17:30:30.451Z,20.99
2023-05-24T17:32:58.504Z,20.86
2023-05-24T17:35:27.218Z,20.79
2023-05-24T17:37:55.209Z,20.73
2023-05-24T17:40:24.577Z,20.86
2023-05-24T17:42:52.469Z,20.62
2023-05-24T17:45:20.504Z,20.58
2023-05-24T17:47:49.752Z,20.64
2023-05-24T17:50:17.772Z,20.59
2023-05-24T17:52:45.656Z,20.64
2023-05-24T17:55:13.660Z,20.45
2023-05-24T17:57:43.020Z,20.34
2023-05-24T18:00:12.456Z,20.32
2023-05-24T18:02:41.503Z,20.13
2023-05-24T18:05:10.283Z,20.14
2023-05-24T18:07:38.480Z,20.11
2023-05-24T18:10:07.810Z,20.29
2023-05-24T18:12:35.743Z,20.25
2023-05-24T18:15:05.945Z,20.14
2023-05-24T18:17:34.173Z,19.76
2023-05-24T18:20:02.323Z,19.57
2023-05-24T18:22:30.323Z,19.39
2023-05-24T18:24:58.633Z,19.38
2023-05-24T18:27:26.885Z,19.36
2023-05-24T18:29:55.219Z,19.58
2023-05-24T18:32:24.692Z,19.52
2023-05-24T18:34:52.666Z,19.40
2023-05-24T18:37:23.144Z,19.12
2023-05-24T18:39:51.117Z,19.03
2023-05-24T18:42:19.148Z,18.90
2023-05-24T18:44:47.110Z,18.84
2023-05-24T18:47:15.104Z,18.49
2023-05-24T18:49:44.407Z,18.55
2023-05-24T18:52:12.423Z,18.18
2023-05-24T18:54:40.423Z,18.03
2023-05-24T18:57:08.490Z,17.81
2023-05-24T18:59:37.544Z,17.61
2023-05-24T19:02:06.248Z,17.71
2023-05-24T19:04:34.270Z,17.78
2023-05-24T19:07:03.633Z,17.85
2023-05-24T19:09:31.602Z,17.95
2023-05-24T19:12:00.267Z,17.96
2023-05-24T19:14:28.646Z,17.83
2023-05-24T19:16:56.793Z,17.78
2023-05-24T19:19:24.736Z,17.75
2023-05-24T19:21:52.933Z,17.59
2023-05-24T19:24:24.089Z,17.56
2023-05-24T19:26:51.992Z,17.66
2023-05-24T19:29:20.263Z,17.54
2023-05-24T19:31:50.788Z,17.65
2023-05-24T19:34:19.882Z,17.58
2023-05-24T19:36:47.904Z,17.37
2023-05-24T19:39:15.893Z,17.31
2023-05-24T19:41:45.354Z,17.34
2023-05-24T19:44:13.274Z,17.40
2023-05-24T19:46:41.445Z,17.26
2023-05-24T19:49:09.533Z,17.29
2023-05-24T19:51:37.540Z,17.58
2023-05-24T19:54:05.700Z,17.55
2023-05-24T19:56:33.615Z,17.73
2023-05-24T19:59:03.241Z,17.69
2023-05-24T20:01:31.775Z,17.65
2023-05-24T20:03:59.853Z,17.63
2023-05-24T20:06:27.839Z,17.71
2023-05-24T20:08:58.856Z,17.54
2023-05-24T20:11:28.158Z,17.82
2023-05-24T20:13:56.976Z,17.86
2023-05-24T20:16:26.411Z,17.84
2023-05-24T20:18:54.430Z,17.82
2023-05-24T20:21:22.452Z,17.76
2023-05-24T20:23:57.696Z,17.86
2023-05-24T20:26:26.209Z,17.98
2023-05-24T20:28:54.174Z,17.98
2023-05-24T20:31:22.142Z,17.88
2023-05-24T20:33:52.999Z,17.94
2023-05-24T20:36:21.033Z,18.00
2023-05-24T20:38:49.147Z,17.94
2023-05-24T20:41:17.376Z,17.98
2023-05-24T20:43:45.580Z,18.08
2023-05-24T20:46:14.572Z,18.03
2023-05-24T20:48:43.426Z,17.55
2023-05-24T20:51:12.718Z,17.51
2023-05-24T20:53:40.841Z,17.63
2023-05-24T20:56:08.905Z,17.73
2023-05-24T20:58:36.861Z,17.84
2023-05-24T21:01:04.804Z,17.97
2023-05-24T21:03:32.799Z,18.08
2023-05-24T21:06:00.849Z,18.03
2023-05-24T21:08:30.184Z,17.99
2023-05-24T21:10:58.195Z,18.03
2023-05-24T21:13:27.217Z,18.00
2023-05-24T21:15:55.187Z,18.04
2023-05-24T21:18:23.240Z,17.82
2023-05-24T21:20:51.322Z,17.89
2023-05-24T21:23:19.325Z,17.90
2023-05-24T21:25:48.882Z,17.97
2023-05-24T21:28:16.826Z,17.79
2023-05-24T21:30:45.194Z,17.79
2023-05-24T21:33:13.200Z,17.80
2023-05-24T21:35:41.408Z,17.84
2023-05-24T21:38:09.460Z,17.92
2023-05-24T21:40:37.359Z,17.83
2023-05-24T21:43:09.652Z,17.92
2023-05-24T21:45:37.651Z,17.92
2023-05-24T21:48:06.151Z,17.96
2023-05-24T21:50:35.179Z,17.90
2023-05-24T21:53:03.619Z,17.77
2023-05-24T21:55:31.742Z,17.80
2023-05-24T21:57:59.662Z,17.49
2023-05-24T22:00:28.988Z,17.42
2023-05-24T22:02:57.128Z,17.58
2023-05-24T22:05:27.646Z,17.66
2023-05-24T22:07:55.928Z,17.73
2023-05-24T22:10:24.215Z,17.55
2023-05-24T22:12:52.124Z,17.48
2023-05-24T22:15:20.149Z,17.55
2023-05-24T22:17:50.428Z,17.51
2023-05-24T22:20:19.333Z,17.42
2023-05-24T22:22:53.287Z,17.14
2023-05-24T22:25:21.739Z,17.11
2023-05-24T22:27:50.025Z,16.97
2023-05-24T22:30:18.383Z,16.92
2023-05-24T22:32:46.667Z,17.09
2023-05-24T22:35:16.449Z,17.16
2023-05-24T22:37:44.402Z,17.26
2023-05-24T22:40:13.524Z,17.21
2023-05-24T22:42:41.573Z,17.26
2023-05-24T22:45:10.397Z,17.23
2023-05-24T22:47:40.029Z,17.09
2023-05-24T22:50:09.524Z,16.94
2023-05-24T22:52:42.449Z,17.08
2023-05-24T22:55:10.921Z,17.03
2023-05-24T22:57:39.039Z,16.97
2023-05-24T23:00:08.503Z,16.97
2023-05-24T23:02:37.344Z,16.90
2023-05-24T23:05:05.866Z,16.75
2023-05-24T23:07:33.857Z,16.91
2023-05-24T23:10:03.449Z,16.58
2023-05-24T23:12:31.412Z,16.53
2023-05-24T23:14:59.551Z,16.66
2023-05-24T23:17:27.555Z,16.50
2023-05-24T23:19:55.752Z,16.56
2023-05-24T23:22:26.337Z,16.70
2023-05-24T23:24:54.369Z,16.69
2023-05-24T23:27:23.927Z,16.71
2023-05-24T23:29:51.876Z,16.75
2023-05-24T23:32:19.834Z,16.76
2023-05-24T23:34:47.833Z,16.71
2023-05-24T23:37:15.850Z,16.72
2023-05-24T23:39:43.793Z,16.69
2023-05-24T23:42:11.810Z,16.57
2023-05-24T23:44:41.184Z,16.61
2023-05-24T23:47:09.588Z,16.52
2023-05-24T23:49:37.633Z,16.30
2023-05-24T23:52:06.711Z,16.42
2023-05-24T23:54:34.636Z,16.41
2023-05-24T23:57:03.995Z,16.26
2023-05-24T23:59:31.914Z,16.25
